Time;durP1;ratioP1;P1;durP2;ratioP2;P2;SDS_P1;SDS_P2;PMS_P1;PMS_P2;Temp;Humidity;BMP_temperature;BMP_pressure;BME280_temperature;BME280_humidity;BME280_pressure;Samples;Min_cycle;Max_cycle;Signal;HPM_P1;HPM_P2
2021/04/11 00:00:46;;;;;;;7.93;2.75;;;;;;;-139.48;100.00;61774.03;5058207;28;20060;-67
2021/04/11 00:03:30;;;;;;;;;;;;;;;-139.48;100.00;61774.03;5058759;28;20097;-66
2021/04/11 00:06:14;;;;;;;13.17;3.33;;;;;;;-139.48;100.00;61774.03;5058170;28;19920;-66
2021/04/11 00:08:58;;;;;;;5.22;2.70;;;;;;;-139.48;100.00;61774.03;5073017;28;20047;-66
2021/04/11 00:11:42;;;;;;;4.00;2.63;;;;;;;-139.48;100.00;61774.03;5073286;28;20044;-66
2021/04/11 00:14:26;;;;;;;4.63;2.53;;;;;;;-139.48;100.00;61774.03;5058081;28;20054;-65
2021/04/11 00:17:10;;;;;;;4.68;2.40;;;;;;;-139.48;100.00;61774.03;5058019;28;20048;-66
2021/04/11 00:19:54;;;;;;;7.40;2.53;;;;;;;-139.48;100.00;61774.03;5057946;28;20064;-65
2021/04/11 00:22:38;;;;;;;4.35;2.60;;;;;;;-139.48;100.00;61774.03;5057985;28;20051;-66
2021/04/11 00:25:26;;;;;;;4.70;2.70;;;;;;;-139.48;100.00;61774.03;5058037;28;20055;-66
2021/04/11 00:28:11;;;;;;;4.75;2.40;;;;;;;-139.48;100.00;61774.03;5057918;28;20063;-64
2021/04/11 00:30:55;;;;;;;4.22;2.60;;;;;;;-139.48;100.00;61774.03;5057642;28;20051;-65
2021/04/11 00:33:44;;;;;;;9.80;3.03;;;;;;;-139.48;100.00;61774.03;5057383;28;20093;-66
2021/04/11 00:36:28;;;;;;;5.40;2.90;;;;;;;-139.48;100.00;61774.03;5074586;22;20140;-69
2021/04/11 00:39:12;;;;;;;5.47;2.95;;;;;;;-139.48;100.00;61774.03;5052861;28;20417;-69
2021/04/11 00:42:13;;;;;;;11.02;3.10;;;;;;;-139.48;100.00;61774.03;5055059;28;20055;-69
2021/04/11 00:45:25;;;;;;;6.10;3.10;;;;;;;-139.48;100.00;61774.03;5055690;28;20052;-70
2021/04/11 00:48:11;;;;;;;4.90;3.50;;;;;;;-139.48;100.00;61774.03;5022376;28;20059;-69
2021/04/11 00:50:58;;;;;;;4.68;3.03;;;;;;;-139.48;100.00;61774.03;5055463;28;20043;-69
2021/04/11 00:53:43;;;;;;;4.40;2.90;;;;;;;-139.48;100.00;61774.03;5055330;28;20071;-69
2021/04/11 00:56:29;;;;;;;7.28;2.72;;;;;;;-139.48;100.00;61774.03;5041371;28;20055;-69
2021/04/11 00:59:13;;;;;;;6.75;3.20;;;;;;;-139.48;100.00;61774.03;5056423;28;20067;-69
2021/04/11 01:01:58;;;;;;;3.72;2.70;;;;;;;-139.48;100.00;61774.03;5055425;28;20580;-69
2021/04/11 01:04:42;;;;;;;;;;;;;;;-139.48;100.00;61774.03;5041827;28;20408;-69
2021/04/11 01:07:26;;;;;;;5.72;3.22;;;;;;;-139.48;100.00;61774.03;5055392;28;19919;-69
2021/04/11 01:10:13;;;;;;;4.95;2.92;;;;;;;-139.48;100.00;61774.03;5041467;28;20068;-69
2021/04/11 01:12:57;;;;;;;8.55;3.53;;;;;;;-139.48;100.00;61774.03;5054976;28;20486;-69
2021/04/11 01:15:41;;;;;;;4.72;3.03;;;;;;;-139.48;100.00;61774.03;5055041;28;20130;-69
2021/04/11 01:18:25;;;;;;;3.88;3.00;;;;;;;-139.48;100.00;61774.03;5055102;28;20463;-69
2021/04/11 01:21:27;;;;;;;9.05;3.00;;;;;;;-139.48;100.00;61774.03;5055359;28;20043;-69
2021/04/11 01:24:32;;;;;;;5.07;3.28;;;;;;;-139.48;100.00;61774.03;5054919;28;20079;-69
2021/04/11 01:27:17;;;;;;;;;;;;;;;-139.48;100.00;61774.03;5041031;28;20063;-69
2021/04/11 01:30:18;;;;;;;3.72;3.17;;;;;;;-139.48;100.00;61774.03;5040833;28;19920;-69
2021/04/11 01:33:06;;;;;;;3.63;2.85;;;;;;;-139.48;100.00;61774.03;5054815;28;20079;-69
2021/04/11 01:35:51;;;;;;;4.78;2.97;;;;;;;-139.48;100.00;61774.03;5040289;28;20512;-69
2021/04/11 01:38:37;;;;;;;5.32;3.53;;;;;;;-139.48;100.00;61774.03;5040810;28;20051;-69
2021/04/11 01:41:29;;;;;;;5.30;3.13;;;;;;;-139.48;100.00;61774.03;5054615;28;20045;-69
2021/04/11 01:44:17;;;;;;;3.67;2.97;;;;;;;-139.48;100.00;61774.03;5054895;28;20048;-69
2021/04/11 01:47:01;;;;;;;4.75;2.90;;;;;;;-139.48;100.00;61774.03;5054282;28;20055;-69
2021/04/11 01:49:45;;;;;;;4.53;3.08;;;;;;;-139.48;100.00;61774.03;5054610;28;20075;-69
2021/04/11 01:52:31;;;;;;;3.83;2.92;;;;;;;-139.48;100.00;61774.03;5054026;28;20084;-69
2021/04/11 01:55:16;;;;;;;4.55;3.15;;;;;;;-139.48;100.00;61774.03;5040291;28;20465;-69
2021/04/11 01:58:03;;;;;;;3.85;2.83;;;;;;;-139.48;100.00;61774.03;5054366;28;20186;-69
2021/04/11 02:00:59;;;;;;;9.70;4.20;;;;;;;-139.48;100.00;61774.03;5054369;28;20075;-69
2021/04/11 02:03:43;;;;;;;4.20;3.47;;;;;;;-139.48;100.00;61774.03;5054003;28;20048;-69
2021/04/11 02:06:28;;;;;;;5.75;3.30;;;;;;;-139.48;100.00;61774.03;5055167;28;20429;-69
2021/04/11 02:09:33;;;;;;;7.60;3.55;;;;;;;-139.48;100.00;61774.03;5040105;28;20075;-69
2021/04/11 02:12:17;;;;;;;4.43;3.33;;;;;;;-139.48;100.00;61774.03;5053826;28;20508;-69
2021/04/11 02:15:10;;;;;;;6.88;3.65;;;;;;;-139.48;100.00;61774.03;5053973;28;20114;-69
2021/04/11 02:17:54;;;;;;;4.95;3.10;;;;;;;-139.48;100.00;61774.03;5053844;28;20044;-69
2021/04/11 02:20:39;;;;;;;8.30;3.92;;;;;;;-139.48;100.00;61774.03;5054002;28;20114;-69
2021/04/11 02:23:24;;;;;;;5.72;3.08;;;;;;;-139.48;100.00;61774.03;5053914;28;20044;-69
2021/04/11 02:26:10;;;;;;;6.38;3.00;;;;;;;-139.48;100.00;61774.03;5039436;28;20062;-69
2021/04/11 02:28:54;;;;;;;5.57;3.28;;;;;;;-139.48;100.00;61774.03;5039583;28;20476;-68
2021/04/11 02:31:38;;;;;;;4.28;2.92;;;;;;;-139.48;100.00;61774.03;5053647;28;20512;-69
2021/04/11 02:34:28;;;;;;;5.18;3.22;;;;;;;-139.48;100.00;61774.03;5039385;28;20052;-69
2021/04/11 02:37:23;;;;;;;3.38;3.08;;;;;;;-139.48;100.00;61774.03;5053234;28;20094;-69
2021/04/11 02:40:10;;;;;;;5.18;3.75;;;;;;;-139.48;100.00;61774.03;5053358;28;20090;-69
2021/04/11 02:42:59;;;;;;;7.75;4.00;;;;;;;-139.48;100.00;61774.03;5053524;28;20452;-69
2021/04/11 02:45:45;;;;;;;5.95;3.50;;;;;;;-139.48;100.00;61774.03;5053235;28;20106;-69
2021/04/11 02:48:29;;;;;;;4.40;3.38;;;;;;;-139.48;100.00;61774.03;5039330;28;20098;-69
2021/04/11 02:51:14;;;;;;;5.35;3.80;;;;;;;-139.48;100.00;61774.03;5053692;28;20075;-69
2021/04/11 02:53:59;;;;;;;4.45;3.05;;;;;;;-139.48;100.00;61774.03;5053054;28;20151;-68
2021/04/11 02:56:43;;;;;;;6.60;3.47;;;;;;;-139.48;100.00;61774.03;5053027;28;20048;-69
2021/04/11 02:59:27;;;;;;;5.28;3.58;;;;;;;-139.48;100.00;61774.03;5052932;28;20079;-69
2021/04/11 03:02:13;;;;;;;5.55;3.58;;;;;;;-139.48;100.00;61774.03;5053156;28;20048;-69
2021/04/11 03:04:57;;;;;;;5.93;3.90;;;;;;;-139.48;100.00;61774.03;5052608;28;20055;-69
2021/04/11 03:07:49;;;;;;;5.47;4.00;;;;;;;-139.48;100.00;61774.03;5052873;28;20079;-69
2021/04/11 03:10:45;;;;;;;5.57;3.83;;;;;;;-139.48;100.00;61774.03;5052784;28;20174;-69
2021/04/11 03:13:29;;;;;;;5.22;3.83;;;;;;;-139.48;100.00;61774.03;5053002;28;20048;-69
2021/04/11 03:16:13;;;;;;;5.80;3.50;;;;;;;-139.48;100.00;61774.03;5038783;28;20102;-69
2021/04/11 03:18:57;;;;;;;5.22;3.28;;;;;;;-139.48;100.00;61774.03;5038729;28;20099;-70
2021/04/11 03:21:41;;;;;;;6.25;3.40;;;;;;;-139.48;100.00;61774.03;5052873;28;20047;-69
2021/04/11 03:24:26;;;;;;;4.38;2.85;;;;;;;-139.48;100.00;61774.03;5052734;28;20516;-69
2021/04/11 03:27:34;;;;;;;6.93;3.50;;;;;;;-139.48;100.00;61774.03;5038836;28;20056;-69
2021/04/11 03:30:23;;;;;;;4.65;2.95;;;;;;;-139.48;100.00;61774.03;5053416;28;20044;-69
2021/04/11 03:33:10;;;;;;;5.72;2.60;;;;;;;-139.48;100.00;61774.03;5052927;28;20056;-69
2021/04/11 03:35:54;;;;;;;4.03;2.97;;;;;;;-139.48;100.00;61774.03;5052463;28;20056;-69
2021/04/11 03:38:39;;;;;;;2.85;2.05;;;;;;;-139.48;100.00;61774.03;5052264;28;20144;-69
2021/04/11 03:41:30;;;;;;;7.57;2.55;;;;;;;-139.48;100.00;61774.03;5038429;28;20552;-69
2021/04/11 03:44:21;;;;;;;4.65;3.28;;;;;;;-139.48;100.00;61774.03;5038632;28;20559;-69
2021/04/11 03:47:11;;;;;;;5.25;3.08;;;;;;;-139.48;100.00;61774.03;5052373;28;20051;-69
2021/04/11 03:50:02;;;;;;;6.47;3.60;;;;;;;-139.48;100.00;61774.03;5052269;28;20051;-69
2021/04/11 03:52:56;;;;;;;5.65;3.35;;;;;;;-139.48;100.00;61774.03;5052376;28;20044;-68
2021/04/11 03:55:43;;;;;;;7.03;3.00;;;;;;;-139.48;100.00;61774.03;5052199;28;20094;-69
2021/04/11 03:58:34;;;;;;;5.78;3.22;;;;;;;-139.48;100.00;61774.03;5052254;28;20095;-69
2021/04/11 04:01:21;;;;;;;5.03;3.10;;;;;;;-139.48;100.00;61774.03;5052308;28;20043;-69
2021/04/11 04:04:12;;;;;;;5.55;2.92;;;;;;;-139.48;100.00;61774.03;5052287;28;20418;-69
2021/04/11 04:07:19;;;;;;;4.80;3.28;;;;;;;-139.48;100.00;61774.03;5037898;28;20099;-69
2021/04/11 04:10:06;;;;;;;4.22;3.25;;;;;;;-139.48;100.00;61774.03;5052480;28;20044;-69
2021/04/11 04:13:05;;;;;;;5.32;3.10;;;;;;;-139.48;100.00;61774.03;5053191;28;20457;-69
2021/04/11 04:16:23;;;;;;;6.53;3.67;;;;;;;-139.48;100.00;61774.03;5054584;28;20120;-69
2021/04/11 04:19:07;;;;;;;5.45;3.15;;;;;;;-139.48;100.00;61774.03;5055984;28;20048;-69
2021/04/11 04:22:12;;;;;;;6.78;3.80;;;;;;;-139.48;100.00;61774.03;5057496;28;20043;-69
2021/04/11 04:25:06;;;;;;;6.25;3.05;;;;;;;-139.48;100.00;61774.03;5056861;28;20102;-69
2021/04/11 04:27:54;;;;;;;5.93;2.97;;;;;;;-139.48;100.00;61774.03;5055866;28;20123;-69
2021/04/11 04:30:56;;;;;;;5.15;2.83;;;;;;;-139.48;100.00;61774.03;5056101;28;20047;-69
2021/04/11 04:33:53;;;;;;;5.20;2.50;;;;;;;-139.48;100.00;61774.03;5056265;28;20056;-69
2021/04/11 04:36:40;;;;;;;3.33;2.30;;;;;;;-139.48;100.00;61774.03;5055802;28;20055;-69
2021/04/11 04:39:49;;;;;;;4.75;2.00;;;;;;;-139.48;100.00;61774.03;5055814;28;20107;-69
2021/04/11 04:42:43;;;;;;;3.45;2.05;;;;;;;-139.48;100.00;61774.03;5056818;28;20048;-69
2021/04/11 04:45:33;;;;;;;7.27;2.47;;;;;;;-139.48;100.00;61774.03;5056558;28;20109;-68
2021/04/11 04:48:24;;;;;;;3.80;2.15;;;;;;;-139.48;100.00;61774.03;5055727;28;20094;-69
2021/04/11 04:51:19;;;;;;;5.20;2.10;;;;;;;-139.48;100.00;61774.03;5055614;28;20095;-68
2021/04/11 04:54:17;;;;;;;3.05;2.15;;;;;;;-139.48;100.00;61774.03;5055369;28;20110;-69
2021/04/11 04:57:07;;;;;;;5.50;2.58;;;;;;;-139.48;100.00;61774.03;5055241;28;20176;-69
2021/04/11 05:00:14;;;;;;;3.53;2.00;;;;;;;-139.48;100.00;61774.03;5041420;28;20047;-69
2021/04/11 05:03:14;;;;;;;4.43;2.17;;;;;;;-139.48;100.00;61774.03;5055494;28;20048;-69
2021/04/11 05:06:21;;;;;;;3.28;2.33;;;;;;;-139.48;100.00;61774.03;5041205;28;20134;-69
2021/04/11 05:09:12;;;;;;;5.63;2.50;;;;;;;-139.48;100.00;61774.03;5055587;28;20040;-69
2021/04/11 05:12:08;;;;;;;3.30;2.53;;;;;;;-139.48;100.00;61774.03;5054997;28;20052;-69
2021/04/11 05:14:57;;;;;;;4.75;2.40;;;;;;;-139.48;100.00;61774.03;5041040;28;20079;-69
2021/04/11 05:17:52;;;;;;;3.80;2.92;;;;;;;-139.48;100.00;61774.03;5054889;28;20056;-67
2021/04/11 05:20:39;;;;;;;5.20;2.45;;;;;;;-139.48;100.00;61774.03;5055442;28;20103;-69
2021/04/11 05:23:28;;;;;;;6.97;3.22;;;;;;;-139.48;100.00;61774.03;5055043;28;20142;-69
2021/04/11 05:26:18;;;;;;;4.93;2.28;;;;;;;-139.48;100.00;61774.03;5054106;28;20406;-69
2021/04/11 05:29:05;;;;;;;4.47;2.75;;;;;;;-139.48;100.00;61774.03;5054885;28;20406;-70
2021/04/11 05:31:51;;;;;;;5.40;2.53;;;;;;;-139.48;100.00;61774.03;5055918;28;20107;-69
2021/04/11 05:34:35;;;;;;;3.63;2.75;;;;;;;-139.48;100.00;61774.03;5040780;28;20103;-69
2021/04/11 05:37:34;;;;;;;5.90;3.30;;;;;;;-139.48;100.00;61774.03;5040452;28;20048;-68
2021/04/11 05:40:34;;;;;;;3.15;2.40;;;;;;;-139.48;100.00;61774.03;5055484;28;20048;-69
2021/04/11 05:43:27;;;;;;;4.88;2.50;;;;;;;-139.48;100.00;61774.03;5054740;28;20055;-69
2021/04/11 05:46:19;;;;;;;4.43;2.67;;;;;;;-139.48;100.00;61774.03;5040343;28;20095;-69
2021/04/11 05:49:07;;;;;;;4.20;2.15;;;;;;;-139.48;100.00;61774.03;5054570;28;20123;-69
2021/04/11 05:51:57;;;;;;;2.97;2.53;;;;;;;-139.48;100.00;61774.03;5054505;28;20099;-69
2021/04/11 05:54:44;;;;;;;6.25;2.83;;;;;;;-139.48;100.00;61774.03;5054482;28;20063;-69
2021/04/11 05:57:33;;;;;;;4.72;2.50;;;;;;;-139.48;100.00;61774.03;5054144;28;20509;-69
2021/04/11 06:00:27;;;;;;;5.15;2.65;;;;;;;-139.48;100.00;61774.03;5054397;28;20050;-69
2021/04/11 06:03:15;;;;;;;8.65;3.03;;;;;;;-139.48;100.00;61774.03;5055012;28;20048;-69
2021/04/11 06:06:20;;;;;;;6.05;3.05;;;;;;;-139.48;100.00;61774.03;5053861;28;20051;-68
2021/04/11 06:09:06;;;;;;;;;;;;;;;-139.48;100.00;61774.03;5040538;28;20055;-69
2021/04/11 06:11:59;;;;;;;4.78;2.72;;;;;;;-139.48;100.00;61774.03;5054154;28;20013;-69
2021/04/11 06:14:51;;;;;;;5.53;3.03;;;;;;;-139.48;100.00;61774.03;5053805;28;20505;-69
2021/04/11 06:17:35;;;;;;;5.80;2.60;;;;;;;-139.48;100.00;61774.03;5053644;28;20051;-68
2021/04/11 06:20:19;;;;;;;5.63;2.40;;;;;;;-139.48;100.00;61774.03;5039334;28;20091;-69
2021/04/11 06:23:11;;;;;;;7.55;2.75;;;;;;;-139.48;100.00;61774.03;5053181;28;20067;-69
2021/04/11 06:26:24;;;;;;;3.38;2.33;;;;;;;-139.48;100.00;61774.03;5052885;28;20147;-69
2021/04/11 06:29:22;;;;;;;5.13;2.53;;;;;;;-139.48;100.00;61774.03;5052933;28;20121;-69
2021/04/11 06:32:08;;;;;;;3.83;2.70;;;;;;;-139.48;100.00;61774.03;5052847;28;20064;-68
2021/04/11 06:34:59;;;;;;;3.97;2.50;;;;;;;-139.48;100.00;61774.03;5052805;28;20114;-68
2021/04/11 06:37:44;;;;;;;3.75;2.42;;;;;;;-139.48;100.00;61774.03;5079721;22;20397;-66
2021/04/11 06:40:40;;;;;;;3.88;2.10;;;;;;;-139.48;100.00;61774.03;5044687;28;20058;-66
2021/04/11 06:43:43;;;;;;;5.53;2.30;;;;;;;-139.48;100.00;61774.03;5073856;28;20086;-66
2021/04/11 06:46:50;;;;;;;4.60;2.50;;;;;;;-139.48;100.00;61774.03;5073904;28;20039;-66
2021/04/11 06:50:13;;;;;;;4.00;2.30;;;;;;;-139.48;100.00;61774.03;5053748;28;20040;-67
2021/04/11 06:53:16;;;;;;;5.22;2.40;;;;;;;-139.48;100.00;61774.03;5049807;28;20070;-66
2021/04/11 06:56:18;;;;;;;4.70;2.50;;;;;;;-139.48;100.00;61774.03;5053433;28;20086;-66
2021/04/11 06:59:14;;;;;;;5.13;1.92;;;;;;;-139.48;100.00;61774.03;5053524;28;20131;-66
2021/04/11 07:02:26;;;;;;;2.70;2.03;;;;;;;-139.48;100.00;61774.03;5038233;28;20093;-66
2021/04/11 07:05:13;;;;;;;2.92;2.17;;;;;;;-139.48;100.00;61774.03;5053400;28;20071;-65
2021/04/11 07:08:24;;;;;;;6.75;2.20;;;;;;;-139.48;100.00;61774.03;5053384;28;20140;-65
2021/04/11 07:11:36;;;;;;;2.78;2.08;;;;;;;-139.48;100.00;61774.03;5053164;28;20118;-66
2021/04/11 07:14:51;;;;;;;3.78;2.17;;;;;;;-139.48;100.00;61774.03;5038059;28;20060;-66
2021/04/11 07:17:44;;;;;;;3.15;2.20;;;;;;;-139.48;100.00;61774.03;5052119;28;20063;-66
2021/04/11 07:20:47;;;;;;;2.90;2.15;;;;;;;-139.48;100.00;61774.03;5053238;28;20195;-66
2021/04/11 07:23:55;;;;;;;8.60;2.47;;;;;;;-139.48;100.00;61774.03;5053221;28;20452;-64
2021/04/11 07:26:47;;;;;;;3.50;2.30;;;;;;;-139.48;100.00;61774.03;5051785;28;20075;-65
2021/04/11 07:29:53;;;;;;;5.88;1.77;;;;;;;-139.48;100.00;61774.03;5037626;28;20059;-66
2021/04/11 07:32:43;;;;;;;4.72;1.90;;;;;;;-139.48;100.00;61774.03;5052866;28;20127;-66
2021/04/11 07:35:37;;;;;;;3.38;2.15;;;;;;;-139.48;100.00;61774.03;5052769;28;20083;-66
2021/04/11 07:38:48;;;;;;;3.28;1.95;;;;;;;-139.48;100.00;61774.03;5052549;28;20087;-66
2021/04/11 07:41:42;;;;;;;4.10;2.35;;;;;;;-139.48;100.00;61774.03;5023595;28;20417;-65
2021/04/11 07:44:48;;;;;;;3.03;1.83;;;;;;;-139.48;100.00;61774.03;5037766;28;20079;-65
2021/04/11 07:47:41;;;;;;;4.75;2.00;;;;;;;-139.48;100.00;61774.03;5051963;28;20182;-65
2021/04/11 07:51:02;;;;;;;3.47;1.80;;;;;;;-139.48;100.00;61774.03;5037431;28;20517;-67
2021/04/11 07:54:23;;;;;;;5.05;1.90;;;;;;;-139.48;100.00;61774.03;5051471;28;20109;-65
2021/04/11 07:57:35;;;;;;;3.95;2.15;;;;;;;-139.48;100.00;61774.03;5052949;28;20094;-66
2021/04/11 08:00:24;;;;;;;4.20;2.00;;;;;;;-139.48;100.00;61774.03;5023274;28;20067;-66
2021/04/11 08:03:32;;;;;;;5.50;2.10;;;;;;;-139.48;100.00;61774.03;5037405;28;20405;-65
2021/04/11 08:06:29;;;;;;;4.47;2.00;;;;;;;-139.48;100.00;61774.03;5052525;28;20382;-65
2021/04/11 08:09:31;;;;;;;5.95;2.38;;;;;;;-139.48;100.00;61774.03;5037126;28;20059;-66
2021/04/11 08:12:31;;;;;;;2.58;1.90;;;;;;;-139.48;100.00;61774.03;5052352;28;20059;-66
2021/04/11 08:15:18;;;;;;;6.60;1.90;;;;;;;-139.48;100.00;61774.03;5052392;28;20047;-65
2021/04/11 08:18:28;;;;;;;4.93;1.92;;;;;;;-139.48;100.00;61774.03;5052688;28;20098;-65
2021/04/11 08:21:18;;;;;;;3.05;2.08;;;;;;;-139.48;100.00;61774.03;5052471;28;20056;-66
2021/04/11 08:24:27;;;;;;;4.25;1.98;;;;;;;-139.48;100.00;61774.03;5052268;28;20051;-65
2021/04/11 08:27:19;;;;;;;2.90;1.70;;;;;;;-139.48;100.00;61774.03;5037222;28;20118;-65
2021/04/11 08:30:13;;;;;;;3.58;1.80;;;;;;;-139.48;100.00;61774.03;5052412;28;20143;-65
2021/04/11 08:33:12;;;;;;;2.92;2.05;;;;;;;-139.48;100.00;61774.03;5037283;28;20040;-65
2021/04/11 08:36:15;;;;;;;2.55;1.70;;;;;;;-139.48;100.00;61774.03;5052166;28;20140;-66
2021/04/11 08:39:26;;;;;;;2.70;1.92;;;;;;;-139.48;100.00;61774.03;5051986;28;20215;-66
2021/04/11 08:42:21;;;;;;;2.90;1.58;;;;;;;-139.48;100.00;61774.03;5052376;28;20126;-65
2021/04/11 08:45:15;;;;;;;3.35;1.42;;;;;;;-139.48;100.00;61774.03;5022861;28;20460;-65
2021/04/11 08:48:29;;;;;;;4.00;1.88;;;;;;;-139.48;100.00;61774.03;5036890;28;20043;-65
2021/04/11 08:51:31;;;;;;;3.30;1.90;;;;;;;-139.48;100.00;61774.03;5051985;28;20072;-65
2021/04/11 08:54:37;;;;;;;3.33;1.55;;;;;;;-139.48;100.00;61774.03;5036971;28;20051;-65
2021/04/11 08:57:36;;;;;;;3.50;1.77;;;;;;;-139.48;100.00;61774.03;5052070;28;20121;-65
2021/04/11 09:00:39;;;;;;;2.10;1.45;;;;;;;-139.48;100.00;61774.03;5036740;28;20048;-63
2021/04/11 09:03:46;;;;;;;8.70;1.77;;;;;;;-139.48;100.00;61774.03;5054506;28;20585;-64
2021/04/11 09:06:36;;;;;;;2.80;1.90;;;;;;;-139.48;100.00;61774.03;5054711;28;20528;-65
2021/04/11 09:09:45;;;;;;;3.03;1.50;;;;;;;-139.48;100.00;61774.03;5040560;28;20091;-65
2021/04/11 09:12:51;;;;;;;4.75;2.00;;;;;;;-139.48;100.00;61774.03;5055011;28;20043;-65
2021/04/11 09:15:48;;;;;;;4.75;1.48;;;;;;;-139.48;100.00;61774.03;5054837;28;20577;-65
2021/04/11 09:18:52;;;;;;;3.65;1.50;;;;;;;-139.48;100.00;61774.03;5039824;28;20532;-65
2021/04/11 09:22:01;;;;;;;2.38;1.52;;;;;;;-139.48;100.00;61774.03;5054736;28;20132;-65
2021/04/11 09:24:55;;;;;;;3.95;1.38;;;;;;;-139.48;100.00;61774.03;5053629;28;20098;-65
2021/04/11 09:28:01;;;;;;;4.10;2.13;;;;;;;-139.48;100.00;61774.03;5025840;28;20163;-65
2021/04/11 09:31:00;;;;;;;4.38;1.60;;;;;;;-139.48;100.00;61774.03;5025736;28;20047;-65
2021/04/11 09:34:05;;;;;;;3.20;1.65;;;;;;;-139.48;100.00;61774.03;5054490;28;20106;-64
2021/04/11 09:37:04;;;;;;;3.40;2.00;;;;;;;-139.48;100.00;61774.03;5053743;28;20401;-65
2021/04/11 09:40:20;;;;;;;4.80;1.70;;;;;;;-139.48;100.00;61774.03;5054238;28;20052;-65
2021/04/11 09:43:26;;;;;;;8.10;1.67;;;;;;;-139.48;100.00;61774.03;5039666;28;20128;-65
2021/04/11 09:46:29;;;;;;;4.00;1.98;;;;;;;-139.48;100.00;61774.03;5054372;28;20473;-66
2021/04/11 09:49:20;;;;;;;2.38;1.40;;;;;;;-139.48;100.00;61774.03;5038982;28;20472;-63
2021/04/11 09:52:25;;;;;;;3.55;1.50;;;;;;;-139.48;100.00;61774.03;5039301;28;20105;-65
2021/04/11 09:55:25;;;;;;;3.88;1.70;;;;;;;-139.48;100.00;61774.03;5053547;28;20063;-65
2021/04/11 09:58:21;;;;;;;5.93;1.60;;;;;;;-139.48;100.00;61774.03;5039125;28;20099;-66
2021/04/11 10:01:18;;;;;;;3.88;1.48;;;;;;;-139.48;100.00;61774.03;5054658;28;20094;-66
2021/04/11 10:04:20;;;;;;;2.95;1.50;;;;;;;-139.48;100.00;61774.03;5054704;28;20086;-66
2021/04/11 10:07:27;;;;;;;1.85;1.50;;;;;;;-139.48;100.00;61774.03;5039826;28;20097;-65
2021/04/11 10:10:48;;;;;;;3.95;1.52;;;;;;;-139.48;100.00;61774.03;5054377;28;20055;-66
2021/04/11 10:13:39;;;;;;;2.38;1.50;;;;;;;-139.48;100.00;61774.03;5054327;28;20098;-65
2021/04/11 10:16:29;;;;;;;3.75;1.35;;;;;;;-139.48;100.00;61774.03;5054211;28;20040;-66
2021/04/11 10:19:25;;;;;;;4.75;2.00;;;;;;;-139.48;100.00;61774.03;5039226;28;20048;-65
2021/04/11 10:22:15;;;;;;;2.90;2.08;;;;;;;-139.48;100.00;61774.03;5039049;28;20044;-64
2021/04/11 10:25:05;;;;;;;7.03;1.50;;;;;;;-139.48;100.00;61774.03;5054379;28;20099;-64
2021/04/11 10:28:13;;;;;;;4.50;1.63;;;;;;;-139.48;100.00;61774.03;5039170;28;20056;-64
2021/04/11 10:31:10;;;;;;;4.90;1.80;;;;;;;-139.48;100.00;61774.03;5025300;28;20052;-62
2021/04/11 10:34:16;;;;;;;3.40;1.90;;;;;;;-139.48;100.00;61774.03;5039720;28;20086;-64
2021/04/11 10:37:36;;;;;;;3.42;1.77;;;;;;;-139.48;100.00;61774.03;5024767;28;20043;-63
2021/04/11 10:40:46;;;;;;;4.80;1.80;;;;;;;-139.48;100.00;61774.03;5021436;28;20639;-56
2021/04/11 10:44:11;;;;;;;1.80;1.50;;;;;;;-139.48;100.00;61774.03;5039151;28;20516;-60
2021/04/11 10:47:07;;;;;;;2.65;1.80;;;;;;;-139.48;100.00;61774.03;5038477;28;20044;-64
2021/04/11 10:49:54;;;;;;;2.90;2.00;;;;;;;-139.48;100.00;61774.03;5053930;28;20552;-57
2021/04/11 10:53:04;;;;;;;2.33;1.63;;;;;;;-139.48;100.00;61774.03;5054041;28;20106;-59
2021/04/11 10:56:12;;;;;;;4.30;1.80;;;;;;;-139.48;100.00;61774.03;5053521;28;20043;-63
2021/04/11 10:59:26;;;;;;;2.65;1.70;;;;;;;-139.48;100.00;61774.03;5053141;28;20079;-63
2021/04/11 11:02:38;;;;;;;3.25;1.70;;;;;;;-139.48;100.00;61774.03;5053393;28;20052;-64
2021/04/11 11:06:00;;;;;;;2.72;1.50;;;;;;;-139.48;100.00;61774.03;5038405;28;20090;-61
2021/04/11 11:09:04;;;;;;;2.20;1.65;;;;;;;-139.48;100.00;61774.03;5052716;28;20071;-64
2021/04/11 11:11:54;;;;;;;3.20;1.70;;;;;;;-139.48;100.00;61774.03;5038341;28;20141;-62
2021/04/11 11:15:00;;;;;;;4.60;2.08;;;;;;;-139.48;100.00;61774.03;5052086;28;20426;-65
2021/04/11 11:17:54;;;;;;;4.80;1.80;;;;;;;-139.48;100.00;61774.03;5038034;28;20072;-63
2021/04/11 11:21:05;;;;;;;2.73;2.10;;;;;;;-139.48;100.00;61774.03;5038233;28;20087;-63
2021/04/11 11:24:10;;;;;;;3.20;1.83;;;;;;;-139.48;100.00;61774.03;5052928;28;20262;-64
2021/04/11 11:27:24;;;;;;;1.83;1.40;;;;;;;-139.48;100.00;61774.03;5052976;28;20048;-63
2021/04/11 11:30:13;;;;;;;5.20;1.60;;;;;;;-139.48;100.00;61774.03;5034211;28;20136;-64
2021/04/11 11:33:29;;;;;;;1.65;1.27;;;;;;;-139.48;100.00;61774.03;5053077;28;20394;-62
2021/04/11 11:36:26;;;;;;;2.72;1.50;;;;;;;-139.48;100.00;61774.03;5053026;28;20052;-64
2021/04/11 11:39:16;;;;;;;2.95;1.63;;;;;;;-139.48;100.00;61774.03;5051400;28;20192;-65
2021/04/11 11:42:38;;;;;;;1.52;1.35;;;;;;;-139.48;100.00;61774.03;5052722;28;20095;-66
2021/04/11 11:45:31;;;;;;;2.42;1.80;;;;;;;-139.48;100.00;61774.03;5053160;28;20202;-66
2021/04/11 11:48:35;;;;;;;3.92;1.70;;;;;;;-139.48;100.00;61774.03;5052853;28;20040;-65
2021/04/11 11:51:43;;;;;;;3.33;1.70;;;;;;;-139.48;100.00;61774.03;5052447;28;20048;-64
2021/04/11 11:54:30;;;;;;;2.35;1.80;;;;;;;-139.48;100.00;61774.03;5052869;28;20067;-65
2021/04/11 11:57:33;;;;;;;2.17;1.65;;;;;;;-139.48;100.00;61774.03;5052638;28;20047;-67
2021/04/11 12:00:54;;;;;;;4.25;1.67;;;;;;;-139.48;100.00;61774.03;5052385;28;20441;-66
2021/04/11 12:03:39;;;;;;;4.65;1.58;;;;;;;-139.48;100.00;61774.03;5037600;28;20099;-67
2021/04/11 12:06:27;;;;;;;7.38;1.98;;;;;;;-139.48;100.00;61774.03;5037471;28;20515;-66
2021/04/11 12:09:30;;;;;;;2.25;1.70;;;;;;;-139.48;100.00;61774.03;5037228;28;20087;-67
2021/04/11 12:12:20;;;;;;;1.52;1.40;;;;;;;-139.48;100.00;61774.03;5023373;28;20048;-66
2021/04/11 12:15:22;;;;;;;1.73;1.10;;;;;;;-139.48;100.00;61774.03;5023722;28;20051;-67
2021/04/11 12:18:13;;;;;;;2.25;1.40;;;;;;;-139.48;100.00;61774.03;5037077;28;20501;-67
2021/04/11 12:21:20;;;;;;;3.15;1.40;;;;;;;-139.48;100.00;61774.03;5023439;28;20041;-68
2021/04/11 12:24:11;;;;;;;1.77;1.40;;;;;;;-139.48;100.00;61774.03;5037273;28;20139;-67
2021/04/11 12:26:57;;;;;;;2.05;1.50;;;;;;;-139.48;100.00;61774.03;5023157;28;20048;-67
2021/04/11 12:29:49;;;;;;;2.65;1.42;;;;;;;-139.48;100.00;61774.03;5023096;28;20099;-67
2021/04/11 12:32:43;;;;;;;3.70;1.60;;;;;;;-139.48;100.00;61774.03;5037331;28;20083;-66
2021/04/11 12:35:38;;;;;;;3.08;1.55;;;;;;;-139.48;100.00;61774.03;5037061;28;20048;-67
2021/04/11 12:38:48;;;;;;;3.63;1.58;;;;;;;-139.48;100.00;61774.03;5042014;28;20075;-68
2021/04/11 12:41:36;;;;;;;4.22;1.67;;;;;;;-139.48;100.00;61774.03;5041061;28;20056;-67
2021/04/11 12:44:44;;;;;;;3.85;1.60;;;;;;;-139.48;100.00;61774.03;5054791;28;20136;-66
2021/04/11 12:47:47;;;;;;;2.55;1.73;;;;;;;-139.48;100.00;61774.03;5055841;28;20047;-67
2021/04/11 12:50:33;;;;;;;2.55;1.80;;;;;;;-139.48;100.00;61774.03;5055791;28;20473;-67
2021/04/11 12:53:23;;;;;;;1.73;1.10;;;;;;;-139.48;100.00;61774.03;5055784;28;20102;-67
2021/04/11 12:56:11;;;;;;;2.25;1.40;;;;;;;-139.48;100.00;61774.03;5041047;28;20059;-67
2021/04/11 12:58:58;;;;;;;4.22;1.60;;;;;;;-139.48;100.00;61774.03;5040549;28;20516;-66
2021/04/11 13:01:45;;;;;;;3.22;1.48;;;;;;;-139.48;100.00;61774.03;5040414;28;20093;-65
2021/04/11 13:04:36;;;;;;;2.17;1.60;;;;;;;-139.48;100.00;61774.03;5040559;28;20129;-67
2021/04/11 13:07:28;;;;;;;3.08;1.23;;;;;;;-139.48;100.00;61774.03;5040746;28;20136;-66
2021/04/11 13:10:22;;;;;;;1.98;1.48;;;;;;;-139.48;100.00;61774.03;5040128;28;20548;-67
2021/04/11 13:13:18;;;;;;;4.03;1.40;;;;;;;-139.48;100.00;61774.03;5026467;28;20110;-67
2021/04/11 13:16:12;;;;;;;2.38;1.42;;;;;;;-139.48;100.00;61774.03;5055331;28;20572;-67